^^
Peaceful Hills Weather Station Historical Data
 
Daily Summary for February 08, 2023 Units:  English    Metric   Both
Daily Weekly Monthly Yearly
  Current: High: Low: Average:
Temperature: 49.5 °F 51.7 °F 47.8 °F 49.7 °F
Dew Point: 47.3 °F 49.5 °F 45.6 °F 47.5 °F
Humidity: 92% 92% 92% 92%
Wind Speed: 2.6mph 9.4mph 0.4mph 3.9mph
Wind Gust: 10mph 24mph - -
WindNNW - - South
Pressure: 29.99 in 30.14 in 29.99 in -
Precipitation: 1.58 in      
 
 
Tabular Data for February 08, 2023
Time Temperature Dew Point Pressure Wind Wind Speed Wind Gust Humidity Rainfall Rate (Hourly)
00:09 51.5 °F 49.3 °F 30.13 in ENE 2.8 mph 9 mph 92% 0.01 in
00:14 51.5 °F 49.3 °F 30.13 in ENE 1.2 mph 5 mph 92% 0.00 in
00:19 51.4 °F 49.2 °F 30.13 in East 4 mph 14 mph 92% 0.00 in
00:24 51.5 °F 49.3 °F 30.13 in NNE 0.4 mph 14 mph 92% 0.00 in
00:29 51.5 °F 49.3 °F 30.14 in WNW 2.8 mph 5 mph 92% 0.00 in
00:34 51.5 °F 49.3 °F 30.14 in ENE 3.4 mph 7 mph 92% 0.00 in
00:39 51.5 °F 49.3 °F 30.14 in NE 3 mph 7 mph 92% 0.00 in
00:44 51.6 °F 49.4 °F 30.13 in NE 3.2 mph 9 mph 92% 0.00 in
00:49 51.6 °F 49.4 °F 30.13 in NNE 4.2 mph 7 mph 92% 0.00 in
00:54 51.6 °F 49.4 °F 30.13 in ENE 2 mph 9 mph 92% 0.00 in
00:59 51.6 °F 49.4 °F 30.13 in North 1 mph 9 mph 92% 0.00 in
01:04 51.6 °F 49.4 °F 30.13 in ENE 2.8 mph 5 mph 92% 0.00 in
01:09 51.7 °F 49.5 °F 30.13 in ENE 1.6 mph 9 mph 92% 0.00 in
01:14 51.7 °F 49.5 °F 30.11 in NE 2.4 mph 18 mph 92% 0.00 in
01:19 51.6 °F 49.4 °F 30.10 in NNE 5.2 mph 19 mph 92% 0.00 in
01:24 51.6 °F 49.4 °F 30.11 in ENE 0.8 mph 16 mph 92% 0.00 in
01:29 51.6 °F 49.4 °F 30.11 in North 3.2 mph 9 mph 92% 0.00 in
01:34 51.6 °F 49.4 °F 30.11 in NE 5.6 mph 10 mph 92% 0.00 in
01:39 51.7 °F 49.5 °F 30.11 in ENE 5 mph 10 mph 92% 0.00 in
01:44 51.7 °F 49.5 °F 30.11 in NNW 3.8 mph 10 mph 92% 0.00 in
01:49 51.7 °F 49.5 °F 30.11 in NNE 3.8 mph 10 mph 92% 0.00 in
01:54 51.7 °F 49.5 °F 30.11 in NE 4.8 mph 9 mph 92% 0.00 in
01:59 51.6 °F 49.4 °F 30.11 in NNE 3.2 mph 18 mph 92% 0.00 in
02:04 51.7 °F 49.5 °F 30.11 in NE 5.2 mph 12 mph 92% 0.00 in
02:09 51.7 °F 49.5 °F 30.11 in East 3 mph 12 mph 92% 0.00 in
02:14 51.7 °F 49.5 °F 30.12 in East 2.4 mph 12 mph 92% 0.00 in
02:19 51.7 °F 49.5 °F 30.12 in NNE 3.2 mph 21 mph 92% 0.00 in
02:24 51.6 °F 49.4 °F 30.11 in North 4.2 mph 21 mph 92% 0.00 in
02:29 51.6 °F 49.4 °F 30.11 in North 4.4 mph 10 mph 92% 0.00 in
02:34 51.6 °F 49.4 °F 30.11 in NNW 5.2 mph 16 mph 92% 0.00 in
02:39 51.5 °F 49.3 °F 30.11 in NNE 5.8 mph 19 mph 92% 0.00 in
02:44 51.5 °F 49.3 °F 30.12 in NE 3 mph 19 mph 92% 0.00 in
02:49 51.5 °F 49.3 °F 30.12 in ENE 1.6 mph 5 mph 92% 0.01 in
02:54 51.5 °F 49.3 °F 30.12 in NE 4 mph 14 mph 92% 0.03 in
02:59 51.4 °F 49.2 °F 30.12 in NE 5.6 mph 14 mph 92% 0.04 in
03:04 51.3 °F 49.1 °F 30.11 in ENE 4 mph 14 mph 92% 0.05 in
03:09 51.2 °F 49 °F 30.10 in NE 4.2 mph 9 mph 92% 0.05 in
03:14 51.2 °F 49 °F 30.10 in NE 5.4 mph 12 mph 92% 0.05 in
03:19 51.1 °F 48.9 °F 30.10 in NE 3.4 mph 16 mph 92% 0.05 in
03:24 51 °F 48.8 °F 30.09 in NE 5.4 mph 16 mph 92% 0.06 in
03:29 51 °F 48.8 °F 30.10 in East 7 mph 14 mph 92% 0.06 in
03:34 50.9 °F 48.7 °F 30.10 in East 5.8 mph 21 mph 92% 0.06 in
03:39 50.9 °F 48.7 °F 30.09 in ESE 6.2 mph 19 mph 92% 0.06 in
03:44 50.8 °F 48.6 °F 30.10 in ESE 4.8 mph 16 mph 92% 0.06 in
03:49 50.8 °F 48.6 °F 30.09 in SE 1.8 mph 12 mph 92% 0.06 in
03:54 50.7 °F 48.5 °F 30.09 in NE 5.4 mph 12 mph 92% 0.06 in
03:59 50.6 °F 48.4 °F 30.08 in East 4.6 mph 14 mph 92% 0.05 in
04:04 50.6 °F 48.4 °F 30.08 in ESE 4.4 mph 14 mph 92% 0.04 in
04:09 50.5 °F 48.3 °F 30.08 in SE 6.8 mph 21 mph 92% 0.04 in
04:14 50.4 °F 48.2 °F 30.07 in East 5.8 mph 23 mph 92% 0.04 in
04:19 50.3 °F 48.1 °F 30.07 in NNE 4.6 mph 16 mph 92% 0.04 in
04:24 50.3 °F 48.1 °F 30.06 in NNE 5.4 mph 14 mph 92% 0.04 in
04:29 50.2 °F 48 °F 30.05 in North 5.4 mph 16 mph 92% 0.03 in
04:34 50.1 °F 47.9 °F 30.05 in NNW 3.6 mph 19 mph 92% 0.03 in
04:39 50.1 °F 47.9 °F 30.04 in ESE 5.4 mph 19 mph 92% 0.03 in
04:44 50 °F 47.8 °F 30.05 in NE 6.4 mph 21 mph 92% 0.03 in
04:49 50 °F 47.8 °F 30.04 in NE 3.4 mph 19 mph 92% 0.03 in
04:54 50 °F 47.8 °F 30.04 in NNE 4.2 mph 19 mph 92% 0.02 in
04:59 49.9 °F 47.7 °F 30.04 in NNE 4.4 mph 12 mph 92% 0.01 in
05:04 49.9 °F 47.7 °F 30.04 in ENE 7 mph 14 mph 92% 0.01 in
05:09 49.9 °F 47.7 °F 30.04 in NE 5.4 mph 18 mph 92% 0.00 in
05:14 49.9 °F 47.7 °F 30.04 in NE 3.8 mph 24 mph 92% 0.00 in
05:19 49.8 °F 47.6 °F 30.04 in NE 4 mph 24 mph 92% 0.00 in
05:24 49.8 °F 47.6 °F 30.04 in ENE 2.2 mph 19 mph 92% 0.00 in
05:29 49.7 °F 47.5 °F 30.04 in NE 4.2 mph 12 mph 92% 0.00 in
05:34 49.7 °F 47.5 °F 30.05 in NE 4.4 mph 14 mph 92% 0.00 in
05:39 49.6 °F 47.4 °F 30.06 in NNW 5.8 mph 12 mph 92% 0.02 in
05:44 49.6 °F 47.4 °F 30.08 in West 5.6 mph 10 mph 92% 0.02 in
05:49 49.5 °F 47.3 °F 30.08 in NW 7.6 mph 12 mph 92% 0.02 in
05:54 49.4 °F 47.2 °F 30.08 in North 2.6 mph 9 mph 92% 0.02 in
05:59 49.3 °F 47.1 °F 30.08 in NW 3.8 mph 7 mph 92% 0.03 in
06:04 49.2 °F 47 °F 30.07 in NNW 4 mph 10 mph 92% 0.09 in
06:09 48.9 °F 46.7 °F 30.07 in NNW 3.8 mph 12 mph 92% 0.13 in
06:14 48.8 °F 46.6 °F 30.07 in North 1.6 mph 12 mph 92% 0.15 in
06:19 48.7 °F 46.5 °F 30.07 in WNW 5.4 mph 10 mph 92% 0.16 in
06:24 48.6 °F 46.4 °F 30.08 in NNW 5 mph 10 mph 92% 0.20 in
06:29 48.5 °F 46.3 °F 30.09 in West 5 mph 9 mph 92% 0.26 in
06:34 48.3 °F 46.1 °F 30.09 in NNW 4.8 mph 9 mph 92% 0.34 in
06:39 48.2 °F 46 °F 30.07 in NNE 4.2 mph 7 mph 92% 0.35 in
06:44 48 °F 45.8 °F 30.07 in NNW 5.8 mph 9 mph 92% 0.37 in
06:49 48 °F 45.8 °F 30.07 in NNE 3.8 mph 7 mph 92% 0.38 in
06:54 48 °F 45.8 °F 30.07 in ENE 9.4 mph 14 mph 92% 0.42 in
06:59 47.9 °F 45.7 °F 30.06 in NNE 3.8 mph 12 mph 92% 0.42 in
07:04 47.9 °F 45.7 °F 30.07 in North 0.8 mph 12 mph 92% 0.41 in
07:09 47.9 °F 45.7 °F 30.07 in ENE 3.4 mph 10 mph 92% 0.35 in
07:14 47.9 °F 45.7 °F 30.07 in NW 1.6 mph 10 mph 92% 0.34 in
07:19 47.9 °F 45.7 °F 30.09 in West 0.4 mph 4 mph 92% 0.34 in
07:24 47.9 °F 45.7 °F 30.10 in West 3 mph 7 mph 92% 0.34 in
07:29 47.9 °F 45.7 °F 30.09 in WNW 4 mph 7 mph 92% 0.30 in
07:34 47.8 °F 45.6 °F 30.08 in NNE 4.2 mph 7 mph 92% 0.28 in
07:39 47.8 °F 45.6 °F 30.09 in North 3.8 mph 7 mph 92% 0.29 in
07:44 47.8 °F 45.6 °F 30.09 in NNW 2.4 mph 7 mph 92% 0.30 in
07:49 47.8 °F 45.6 °F 30.10 in ENE 1.2 mph 5 mph 92% 0.30 in
07:54 47.8 °F 45.6 °F 30.11 in ENE 2.4 mph 5 mph 92% 0.29 in
07:59 47.8 °F 45.6 °F 30.11 in SW 2.4 mph 7 mph 92% 0.30 in
08:04 47.8 °F 45.6 °F 30.12 in WSW 3.6 mph 5 mph 92% 0.31 in
08:09 47.8 °F 45.6 °F 30.12 in WSW 3.8 mph 5 mph 92% 0.32 in
08:14 47.8 °F 45.6 °F 30.12 in West 5 mph 9 mph 92% 0.33 in
08:19 47.8 °F 45.6 °F 30.11 in NNW 3 mph 9 mph 92% 0.33 in
08:24 47.8 °F 45.6 °F 30.10 in NE 2 mph 7 mph 92% 0.34 in
08:29 47.8 °F 45.6 °F 30.10 in East 3.4 mph 7 mph 92% 0.34 in
08:34 47.9 °F 45.7 °F 30.11 in North 2.8 mph 5 mph 92% 0.31 in
08:39 47.9 °F 45.7 °F 30.11 in West 0.4 mph 4 mph 92% 0.27 in
08:44 47.9 °F 45.7 °F 30.11 in NW 3.2 mph 9 mph 92% 0.28 in
08:49 48 °F 45.8 °F 30.11 in NW 2.4 mph 12 mph 92% 0.33 in
08:54 48.1 °F 45.9 °F 30.10 in NE 2.6 mph 12 mph 92% 0.33 in
08:59 48.2 °F 46 °F 30.09 in East 3.2 mph 10 mph 92% 0.31 in
09:04 48.3 °F 46.1 °F 30.09 in North 5.4 mph 12 mph 92% 0.30 in
09:09 48.5 °F 46.3 °F 30.08 in NE 8.4 mph 16 mph 92% 0.29 in
09:14 48.5 °F 46.3 °F 30.07 in NNW 7 mph 23 mph 92% 0.31 in
09:19 48.5 °F 46.3 °F 30.06 in North 6.4 mph 16 mph 92% 0.31 in
09:24 48.5 °F 46.3 °F 30.07 in NNW 6.8 mph 16 mph 92% 0.29 in
09:29 48.5 °F 46.3 °F 30.07 in NNW 4.4 mph 10 mph 92% 0.29 in
09:34 48.5 °F 46.3 °F 30.06 in NNW 4 mph 12 mph 92% 0.30 in
09:39 48.5 °F 46.3 °F 30.06 in NNW 5.8 mph 14 mph 92% 0.30 in
09:44 48.4 °F 46.2 °F 30.06 in NNW 4.8 mph 12 mph 92% 0.25 in
09:49 48.4 °F 46.2 °F 30.05 in NNW 6.6 mph 12 mph 92% 0.23 in
09:54 48.4 °F 46.2 °F 30.05 in NNW 3.4 mph 12 mph 92% 0.18 in
09:59 48.5 °F 46.3 °F 30.05 in NNW 7 mph 14 mph 92% 0.18 in
10:04 48.5 °F 46.3 °F 30.05 in NNW 5.6 mph 14 mph 92% 0.18 in
10:09 48.5 °F 46.3 °F 30.04 in NNW 3 mph 9 mph 92% 0.17 in
10:14 48.6 °F 46.4 °F 30.04 in NNW 3.4 mph 10 mph 92% 0.16 in
10:19 48.6 °F 46.4 °F 30.03 in NNW 2.4 mph 7 mph 92% 0.14 in
10:24 48.7 °F 46.5 °F 30.03 in NNW 2 mph 5 mph 92% 0.12 in
10:29 48.7 °F 46.5 °F 30.03 in NNW 5.2 mph 14 mph 92% 0.10 in
10:34 48.8 °F 46.6 °F 30.03 in NNW 4.2 mph 10 mph 92% 0.09 in
10:39 48.9 °F 46.7 °F 30.03 in NNW 5 mph 12 mph 92% 0.07 in
10:44 48.9 °F 46.7 °F 30.03 in NNW 3.8 mph 9 mph 92% 0.06 in
10:49 49 °F 46.8 °F 30.02 in NNW 3.4 mph 9 mph 92% 0.05 in
10:54 49 °F 46.8 °F 30.03 in NNW 1.6 mph 9 mph 92% 0.05 in
10:59 49 °F 46.8 °F 30.04 in NNW 4.6 mph 9 mph 92% 0.05 in
11:04 49 °F 46.8 °F 30.04 in NNW 4.6 mph 9 mph 92% 0.06 in
11:09 49.1 °F 46.9 °F 30.03 in NNW 4.2 mph 12 mph 92% 0.07 in
11:14 49.1 °F 46.9 °F 30.03 in NNW 2 mph 12 mph 92% 0.07 in
11:19 49.1 °F 46.9 °F 30.03 in NNW 4 mph 12 mph 92% 0.08 in
11:24 49.2 °F 47 °F 30.02 in NNW 3.8 mph 7 mph 92% 0.09 in
11:29 49.2 °F 47 °F 30.02 in NNW 3.8 mph 9 mph 92% 0.11 in
11:34 49.3 °F 47.1 °F 30.02 in NNW 2 mph 9 mph 92% 0.14 in
11:39 49.3 °F 47.1 °F 30.01 in NNW 3 mph 9 mph 92% 0.14 in
11:44 49.3 °F 47.1 °F 30.01 in NNW 1.4 mph 9 mph 92% 0.15 in
11:49 49.4 °F 47.2 °F 30.00 in NNW 2.2 mph 9 mph 92% 0.16 in
11:54 49.4 °F 47.2 °F 30.00 in NNW 1.2 mph 9 mph 92% 0.18 in
11:59 49.4 °F 47.2 °F 30.00 in NNW 0.8 mph 4 mph 92% 0.19 in
12:04 49.4 °F 47.2 °F 29.99 in NNW 1.6 mph 4 mph 92% 0.19 in
12:09 49.4 °F 47.2 °F 29.99 in NNW 2.6 mph 5 mph 92% 0.18 in
12:14 49.5 °F 47.3 °F 29.99 in NNW 2.6 mph 10 mph 92% 0.17 in
Compliments of Weather Underground - 2 mb